Ana Sayfa
METAR-TAF:

METAR-TAF

Havaalanları :

Montgomery, Alabama, Amerika Birleşik Devletleri

Enlem: 32-23N, Boylam: 086-22W, yükseklik: 51 m

Güncel hava durumu gözlemi

Rapor saat 16:55 UTC de 1 saat ve 28 dakika önce yapıldı.
Rüzgar batı/kuzeybatıdan 3 kt
Sıcaklık 36°C
Nem 27%
Basınç 1014 hPa
Görüş mesafesi: 16.1 km
19000 ft yükseklikte az bulutlu

METAR: KMXF 251655Z COR 30003KT 10SM FEW190 36/14 A2993 RMK SLPNO

Saat: 13:23 (18:23 UTC)

Tahmin

Rapor saat 11:00 UTC de 7 saat ve 23 dakika önce yapıldı.
Ayın 25'si saat 11 UTC'den ayın 26'si saat 17 UTC'ye kadar geçerli Tahmin
Rüzgar değişken yönden 6 kt
Görüş mesafesi 10 km veya daha fazla
Açık gökyüzü

TAF: KMXF 251100Z 2511/2617 VRB06KT 9999 SKC QNH2987INS TX35/2521Z TN21/2611Z

4.000'den fazla havaalanı için hava durumu gözlemleri ve tahminleri (METAR ve TAF raporları).

Kullanılabilir istasyonlar harita üzerinde sarı ve kırmızı noktalarla gösterilir.

İstasyonun adını görmek için fareyi noktanın üzerinde gezdirin.

Sonrasında hava gözlem ve tahminlerini görmek için tıklayın.

Haritayı değiştirmek için: yaklaştırmak için siyah artı işaretli yeşil düğmeye ve uzaklaştırmak için de eksi işaretli düğmeye hızla tıklayın; bitişik haritalar için yeşil okları kullanın.


METAR-TAF: